ソチ の空港の天気 - METARとTAF

ソチ空港 ( URSS / AER ) - ロシア ソチ
飛行場実況気象(Metar)
観測時間03/29 00:00 MSK (03/28 21:00 UTC)
風向・風速東 3m/s
視程10km以上
天気現象
全天の8割程度の雲 雲底高度 2130m
気温7℃
湿度81%
気圧1023hPa
METARURSS 282100Z 08003MPS 9999 BKN070 07/04 Q1023 R06/090070 R02/090070 NOSIG RMK R02/07002MPS QFE766
過去の天気等 Google飛行場航空写真 Wunderground天気予報

過去48時間のMETAR

飛行場予報(TAF)
発表時間: 3/28 22:56 MSK (3/28 19:56 UTC)
予報対象時間: 29日0時 MSK ~ 30日0時 MSK
風向・風速北東 6m/s
視程10km以上
全天の4割程度の積乱雲 雲底高度 610m
全天の8割程度の雲 雲底高度 3,050m
29日0時 MSK ~ 29日9時 MSK に一時的に
天気現象弱いしゅう雨
29日10時 MSK ~ 29日12時 MSK に徐々に
風向・風速南 5m/s 瞬間風速 10m/s
全天の4割程度の雲 雲底高度 910m
全天の8割程度の雲 雲底高度 3,050m
29日19時 MSK ~ 29日21時 MSK に徐々に
風向・風速北東 7m/s
TAF URSS 281956Z 2821/2921 05006MPS 9999 SCT020CB BKN100
TEMPO 2821/2906 -SHRA
BECMG 2907/2909 17005G10MPS SCT030 BKN100
BECMG 2916/2918 05007MPS